Time;durP1;ratioP1;P1;durP2;ratioP2;P2;SDS_P1;SDS_P2;PMS_P1;PMS_P2;Temp;Humidity;BMP_temperature;BMP_pressure;BME280_temperature;BME280_humidity;BME280_pressure;Samples;Min_cycle;Max_cycle;Signal;HPM_P1;HPM_P2
2023/10/29 00:01:12;;;;;;;4.90;4.40;;;12.80;99.90;;;;;;5052934;28;20178;-72
2023/10/29 00:03:37;;;;;;;4.70;4.40;;;12.80;99.90;;;;;;5052663;28;20270;-72
2023/10/29 00:06:03;;;;;;;7.30;5.03;;;12.90;99.90;;;;;;5052505;28;20229;-71
2023/10/29 00:08:28;;;;;;;9.03;4.37;;;12.90;99.90;;;;;;5052386;28;20182;-71
2023/10/29 00:10:54;;;;;;;5.40;4.27;;;13.00;99.90;;;;;;5051816;28;20663;-72
2023/10/29 00:13:20;;;;;;;4.47;4.07;;;13.00;99.90;;;;;;5051601;28;20210;-73
2023/10/29 00:15:45;;;;;;;4.63;4.23;;;13.10;99.90;;;;;;5051737;28;20170;-72
2023/10/29 00:18:12;;;;;;;5.83;3.77;;;13.10;99.90;;;;;;5052049;28;20194;-74
2023/10/29 00:20:39;;;;;;;3.53;3.30;;;13.20;99.90;;;;;;5051766;28;20174;-70
2023/10/29 00:23:05;;;;;;;4.90;4.17;;;13.20;99.90;;;;;;5051848;28;20178;-71
2023/10/29 00:25:30;;;;;;;4.43;4.13;;;13.20;99.90;;;;;;5051373;28;20178;-72
2023/10/29 00:27:56;;;;;;;3.97;3.60;;;13.30;99.90;;;;;;5052001;28;20175;-70
2023/10/29 00:30:22;;;;;;;4.20;3.83;;;13.30;99.90;;;;;;5051771;28;20266;-71
2023/10/29 00:32:47;;;;;;;4.03;3.73;;;13.40;99.90;;;;;;5051478;28;20241;-71
2023/10/29 00:35:13;;;;;;;5.87;3.77;;;13.40;99.90;;;;;;5051399;28;20273;-72
2023/10/29 00:37:39;;;;;;;3.77;3.57;;;13.50;99.90;;;;;;5051681;28;20179;-71
2023/10/29 00:40:05;;;;;;;5.00;3.73;;;13.50;99.90;;;;;;5051323;28;20186;-70
2023/10/29 00:42:30;;;;;;;4.33;3.70;;;13.50;99.90;;;;;;5051504;28;20185;-71
2023/10/29 00:44:56;;;;;;;4.70;3.40;;;13.40;99.90;;;;;;5050930;28;20191;-72
2023/10/29 00:47:22;;;;;;;3.67;3.30;;;13.40;99.90;;;;;;5051561;28;20170;-71
2023/10/29 00:49:48;;;;;;;3.67;3.47;;;13.40;99.90;;;;;;5051489;28;20614;-72
2023/10/29 00:52:14;;;;;;;3.90;3.70;;;13.40;99.90;;;;;;5051335;28;20286;-72
2023/10/29 00:54:40;;;;;;;3.87;3.57;;;13.40;99.90;;;;;;5050938;28;20198;-71
2023/10/29 00:57:07;;;;;;;5.53;3.57;;;13.40;99.90;;;;;;5051453;28;20166;-70
2023/10/29 00:59:34;;;;;;;3.83;3.53;;;13.40;99.90;;;;;;5051196;28;20179;-71
2023/10/29 01:02:01;;;;;;;4.23;3.93;;;13.50;99.90;;;;;;5051360;28;20183;-72
2023/10/29 01:04:27;;;;;;;4.30;3.80;;;13.50;99.90;;;;;;5051050;28;20576;-73
2023/10/29 01:06:52;;;;;;;5.30;3.80;;;13.50;99.90;;;;;;5050951;28;20185;-72
2023/10/29 01:09:19;;;;;;;4.03;3.63;;;13.50;99.90;;;;;;5051169;28;20268;-73
2023/10/29 01:11:44;;;;;;;4.00;3.63;;;13.50;99.90;;;;;;5050941;28;20209;-71
2023/10/29 01:14:10;;;;;;;3.83;3.53;;;13.50;99.90;;;;;;5051267;28;20671;-73
2023/10/29 01:16:35;;;;;;;6.30;3.57;;;13.50;99.90;;;;;;5050641;28;20592;-73
2023/10/29 01:19:01;;;;;;;4.83;3.70;;;13.50;99.90;;;;;;5051020;28;20174;-72
2023/10/29 01:21:28;;;;;;;4.20;3.80;;;13.60;99.90;;;;;;5051798;28;20170;-71
2023/10/29 01:23:54;;;;;;;3.97;3.57;;;13.60;99.90;;;;;;5054982;28;20214;-73
2023/10/29 01:26:20;;;;;;;4.03;3.20;;;13.60;99.90;;;;;;5055098;28;20221;-70
2023/10/29 01:28:45;;;;;;;4.63;4.23;;;13.70;99.90;;;;;;5055574;28;20175;-71
2023/10/29 01:31:11;;;;;;;4.53;3.87;;;13.70;99.90;;;;;;5055172;28;20254;-72
2023/10/29 01:33:39;;;;;;;4.30;3.40;;;13.70;99.90;;;;;;5054821;28;20293;-71
2023/10/29 01:36:06;;;;;;;3.43;3.23;;;13.80;99.90;;;;;;5054812;28;20232;-71
2023/10/29 01:38:32;;;;;;;3.77;3.47;;;13.80;99.90;;;;;;5054673;28;20183;-72
2023/10/29 01:40:58;;;;;;;3.40;3.20;;;13.80;99.90;;;;;;5055010;28;20170;-70
2023/10/29 01:43:24;;;;;;;3.77;3.47;;;13.80;99.90;;;;;;5055036;28;20557;-71
2023/10/29 01:45:50;;;;;;;3.87;3.40;;;13.80;99.90;;;;;;5054625;28;20300;-70
2023/10/29 01:48:16;;;;;;;4.30;3.50;;;13.80;99.90;;;;;;5054965;28;20691;-71
2023/10/29 01:50:42;;;;;;;4.40;4.00;;;13.80;99.90;;;;;;5054677;28;20255;-71
2023/10/29 01:53:07;;;;;;;3.90;3.60;;;13.80;99.90;;;;;;5054321;28;20352;-72
2023/10/29 01:55:36;;;;;;;5.07;3.63;;;13.80;99.90;;;;;;5054556;28;20253;-70
2023/10/29 01:58:02;;;;;;;3.77;3.40;;;13.80;99.90;;;;;;5054755;28;20174;-71
2023/10/29 02:00:28;;;;;;;3.97;3.57;;;13.80;99.90;;;;;;5054639;28;20170;-72
2023/10/29 02:02:54;;;;;;;6.53;3.70;;;13.80;99.90;;;;;;5054423;28;20657;-71
2023/10/29 02:05:19;;;;;;;4.20;3.60;;;13.80;99.90;;;;;;5054126;28;20197;-72
2023/10/29 02:07:45;;;;;;;4.73;3.80;;;13.80;99.90;;;;;;5054175;28;20170;-71
2023/10/29 02:10:11;;;;;;;4.03;3.73;;;13.60;99.90;;;;;;5054497;28;20287;-71
2023/10/29 02:12:36;;;;;;;4.10;3.80;;;13.50;99.90;;;;;;5054301;28;20202;-71
2023/10/29 02:15:04;;;;;;;4.20;3.80;;;13.40;99.90;;;;;;5054067;28;20186;-71
2023/10/29 02:17:30;;;;;;;5.87;3.43;;;13.30;99.90;;;;;;5054023;28;20177;-71
2023/10/29 02:19:56;;;;;;;4.57;3.57;;;13.20;99.90;;;;;;5054301;28;20175;-70
2023/10/29 02:22:25;;;;;;;3.90;3.57;;;13.20;99.90;;;;;;5054331;28;20177;-70
2023/10/29 02:24:51;;;;;;;3.97;3.50;;;13.20;99.90;;;;;;5053548;28;20197;-70
2023/10/29 02:27:17;;;;;;;4.70;3.37;;;13.10;99.90;;;;;;5054130;28;20656;-70
2023/10/29 02:29:43;;;;;;;4.17;3.37;;;13.10;99.90;;;;;;5054115;28;20258;-70
2023/10/29 02:32:09;;;;;;;3.70;3.40;;;13.10;99.90;;;;;;5053702;28;20294;-71
2023/10/29 02:34:34;;;;;;;3.50;3.20;;;13.10;99.90;;;;;;5053283;28;20195;-70
2023/10/29 02:37:00;;;;;;;5.00;3.23;;;13.10;99.90;;;;;;5053839;28;20166;-71
2023/10/29 02:39:26;;;;;;;3.40;3.07;;;13.10;99.90;;;;;;5053787;28;20224;-71
2023/10/29 02:41:51;;;;;;;5.97;3.63;;;13.10;99.90;;;;;;5053814;28;20549;-71
2023/10/29 02:44:17;;;;;;;4.37;3.53;;;13.10;99.90;;;;;;5053694;28;20333;-70
2023/10/29 02:46:42;;;;;;;3.87;3.00;;;13.10;99.90;;;;;;5053813;28;20212;-71
2023/10/29 02:49:08;;;;;;;3.53;3.20;;;13.10;99.90;;;;;;5053895;28;20179;-71
2023/10/29 02:51:33;;;;;;;4.97;3.50;;;13.20;99.90;;;;;;5053532;28;20532;-72
2023/10/29 02:53:59;;;;;;;3.73;3.30;;;13.20;99.90;;;;;;5053745;28;20191;-70
2023/10/29 02:56:25;;;;;;;4.80;3.20;;;13.20;99.90;;;;;;5053793;28;20213;-70
2023/10/29 02:58:50;;;;;;;3.63;3.43;;;13.20;99.90;;;;;;5053541;28;20615;-71
2023/10/29 03:01:16;;;;;;;3.40;3.10;;;13.20;99.90;;;;;;5053310;28;20463;-70
2023/10/29 03:03:43;;;;;;;3.40;3.10;;;13.20;99.90;;;;;;5053501;28;20197;-70
2023/10/29 03:06:09;;;;;;;4.33;3.13;;;13.20;99.90;;;;;;5053323;28;20178;-71
2023/10/29 03:08:35;;;;;;;3.43;3.10;;;13.30;99.90;;;;;;5053483;28;20651;-71
2023/10/29 03:11:02;;;;;;;3.60;3.10;;;13.30;99.90;;;;;;5053361;28;20174;-70
2023/10/29 03:13:28;;;;;;;3.40;3.10;;;13.30;99.90;;;;;;5053301;28;20699;-72
2023/10/29 03:15:55;;;;;;;3.10;2.90;;;13.40;99.90;;;;;;5052852;28;20254;-71
2023/10/29 03:18:21;;;;;;;3.90;3.27;;;13.50;99.90;;;;;;5053358;28;20175;-72
2023/10/29 03:20:47;;;;;;;2.80;2.60;;;13.50;99.90;;;;;;5053392;28;20640;-71
2023/10/29 03:23:12;;;;;;;3.00;2.80;;;13.50;99.90;;;;;;5053125;28;20185;-70
2023/10/29 03:25:38;;;;;;;4.00;3.60;;;13.60;99.90;;;;;;5052845;28;20246;-70
2023/10/29 03:28:04;;;;;;;3.23;2.90;;;13.60;99.90;;;;;;5053258;28;20189;-69
2023/10/29 03:30:29;;;;;;;3.43;3.17;;;13.60;99.90;;;;;;5052570;28;20178;-71
2023/10/29 03:32:55;;;;;;;3.63;3.00;;;13.70;99.90;;;;;;5052624;28;20695;-71
2023/10/29 03:35:20;;;;;;;3.07;2.87;;;13.70;99.90;;;;;;5052954;28;20222;-70
2023/10/29 03:37:46;;;;;;;2.90;2.70;;;13.70;99.90;;;;;;5053176;28;20197;-71
2023/10/29 03:40:12;;;;;;;3.10;2.90;;;13.70;99.90;;;;;;5053056;28;20514;-71
2023/10/29 03:42:37;;;;;;;4.17;3.10;;;13.70;99.90;;;;;;5053049;28;20171;-70
2023/10/29 03:45:03;;;;;;;3.17;3.00;;;13.70;99.90;;;;;;5051754;28;20198;-71
2023/10/29 03:47:29;;;;;;;2.83;2.70;;;13.80;99.90;;;;;;5052979;28;20588;-70
2023/10/29 03:49:57;;;;;;;3.00;2.80;;;13.80;99.90;;;;;;5052647;28;20171;-70
2023/10/29 03:52:23;;;;;;;3.90;2.93;;;13.80;99.90;;;;;;5052716;28;20202;-71
2023/10/29 03:54:49;;;;;;;3.27;3.07;;;13.80;99.90;;;;;;5052300;28;20198;-71
2023/10/29 03:57:14;;;;;;;2.73;2.60;;;13.90;99.90;;;;;;5052488;28;20262;-70
2023/10/29 03:59:40;;;;;;;3.17;2.80;;;13.90;99.90;;;;;;5052720;28;20174;-70
2023/10/29 04:02:06;;;;;;;3.17;2.93;;;14.00;99.90;;;;;;5052451;28;20179;-71
2023/10/29 04:04:32;;;;;;;2.93;2.73;;;14.00;99.90;;;;;;5052542;28;20687;-71
2023/10/29 04:06:58;;;;;;;3.20;2.90;;;14.10;99.90;;;;;;5052316;28;20179;-70
2023/10/29 04:09:24;;;;;;;2.80;2.60;;;14.10;99.90;;;;;;5052570;28;20182;-71
2023/10/29 04:11:49;;;;;;;2.83;2.63;;;14.20;99.90;;;;;;5052204;28;20199;-72
2023/10/29 04:14:15;;;;;;;3.00;2.80;;;14.20;99.90;;;;;;5052175;28;20683;-71
2023/10/29 04:16:40;;;;;;;3.03;2.70;;;14.20;99.90;;;;;;5052227;28;20175;-71
2023/10/29 04:19:06;;;;;;;3.27;3.03;;;14.20;99.90;;;;;;5052262;28;20542;-71
2023/10/29 04:21:32;;;;;;;4.60;3.50;;;14.20;99.90;;;;;;5052344;28;20241;-72
2023/10/29 04:23:57;;;;;;;2.90;2.70;;;14.30;99.90;;;;;;5052137;28;20551;-72
2023/10/29 04:26:23;;;;;;;3.13;2.93;;;14.30;99.90;;;;;;5051828;28;20203;-70
2023/10/29 04:28:48;;;;;;;2.80;2.60;;;14.40;99.90;;;;;;5051948;28;20657;-70
2023/10/29 04:31:14;;;;;;;2.73;2.63;;;14.40;99.90;;;;;;5052294;28;20195;-71
2023/10/29 04:33:40;;;;;;;2.90;2.70;;;14.40;99.90;;;;;;5051975;28;20610;-70
2023/10/29 04:36:06;;;;;;;2.80;2.60;;;14.50;99.90;;;;;;5051607;28;20163;-69
2023/10/29 04:38:35;;;;;;;4.67;2.90;;;14.50;99.90;;;;;;5052220;28;20707;-71
2023/10/29 04:41:01;;;;;;;2.70;2.50;;;14.50;99.90;;;;;;5051486;28;20699;-71
2023/10/29 04:43:26;;;;;;;2.77;2.60;;;14.50;99.90;;;;;;5051945;28;20210;-70
2023/10/29 04:45:52;;;;;;;2.93;2.73;;;14.40;99.90;;;;;;5033971;28;20636;-71
2023/10/29 04:48:18;;;;;;;2.63;2.53;;;14.50;99.90;;;;;;5051657;28;20182;-69
2023/10/29 04:50:43;;;;;;;2.93;2.73;;;14.50;99.90;;;;;;5051748;28;20175;-70
2023/10/29 04:53:09;;;;;;;3.03;2.83;;;14.50;99.90;;;;;;5051602;28;20582;-69
2023/10/29 04:55:34;;;;;;;3.77;2.73;;;14.40;99.90;;;;;;5051360;28;20195;-70
2023/10/29 04:58:00;;;;;;;3.40;2.70;;;14.40;99.90;;;;;;5051253;28;20174;-70
2023/10/29 05:00:26;;;;;;;2.70;2.50;;;14.40;99.90;;;;;;5051826;28;20166;-71
2023/10/29 05:02:51;;;;;;;2.83;2.60;;;14.40;99.90;;;;;;5051536;28;20171;-71
2023/10/29 05:05:17;;;;;;;2.93;2.73;;;14.50;99.90;;;;;;5051077;28;20202;-69
2023/10/29 05:07:44;;;;;;;2.67;2.57;;;14.50;99.90;;;;;;5051649;28;20221;-71
2023/10/29 05:10:11;;;;;;;3.10;2.73;;;14.50;99.90;;;;;;5051498;28;20175;-70
2023/10/29 05:12:37;;;;;;;2.80;2.60;;;14.50;99.90;;;;;;5051457;28;20202;-70
2023/10/29 05:15:03;;;;;;;2.90;2.70;;;14.50;99.90;;;;;;5050842;28;20189;-70
2023/10/29 05:17:29;;;;;;;2.87;2.60;;;14.60;99.90;;;;;;5051112;28;20205;-70
2023/10/29 05:19:55;;;;;;;3.20;2.90;;;14.60;99.90;;;;;;5051426;28;20194;-70
2023/10/29 05:22:21;;;;;;;3.67;2.70;;;14.60;99.90;;;;;;5051473;28;20182;-70
2023/10/29 05:24:47;;;;;;;3.10;2.80;;;14.70;99.90;;;;;;5051115;28;20197;-69
2023/10/29 05:27:12;;;;;;;3.07;2.77;;;14.60;99.90;;;;;;5051253;28;20245;-70
2023/10/29 05:29:38;;;;;;;3.90;3.00;;;14.50;99.90;;;;;;5051735;28;20181;-69
2023/10/29 05:32:04;;;;;;;3.27;2.67;;;14.50;99.90;;;;;;5051616;28;20725;-70
2023/10/29 05:34:30;;;;;;;2.87;2.67;;;14.50;99.90;;;;;;5051100;28;20627;-71
2023/10/29 05:36:56;;;;;;;3.00;2.80;;;14.40;99.90;;;;;;5051227;28;20262;-71
2023/10/29 05:39:21;;;;;;;3.00;2.70;;;14.40;99.90;;;;;;5051503;28;20187;-72
2023/10/29 05:41:47;;;;;;;3.70;3.40;;;14.40;99.90;;;;;;5051438;28;20198;-70
2023/10/29 05:44:14;;;;;;;3.17;2.50;;;14.50;99.90;;;;;;5051159;28;21206;-71
2023/10/29 05:46:39;;;;;;;3.60;2.90;;;14.50;99.90;;;;;;5051057;28;20159;-70
2023/10/29 05:49:05;;;;;;;4.67;3.70;;;14.40;99.90;;;;;;5050886;28;20163;-73
2023/10/29 05:51:31;;;;;;;3.10;2.80;;;14.50;99.90;;;;;;5051269;28;20178;-71
2023/10/29 05:53:56;;;;;;;2.63;2.53;;;14.50;99.90;;;;;;5051010;28;20278;-71
2023/10/29 05:56:22;;;;;;;3.53;2.83;;;14.50;99.90;;;;;;5050786;28;20175;-70
2023/10/29 05:58:48;;;;;;;2.50;2.40;;;14.50;99.90;;;;;;5050885;28;20543;-69
2023/10/29 06:01:14;;;;;;;2.70;2.60;;;14.50;99.90;;;;;;5050946;28;20173;-70
2023/10/29 06:03:39;;;;;;;3.07;2.60;;;14.50;99.90;;;;;;5050855;28;20199;-69
2023/10/29 06:06:05;;;;;;;5.00;2.80;;;14.40;99.90;;;;;;5050721;28;20240;-71
2023/10/29 06:08:31;;;;;;;3.47;2.63;;;14.40;99.90;;;;;;5053335;28;20232;-71
2023/10/29 06:10:57;;;;;;;3.37;2.60;;;14.40;99.90;;;;;;5054409;28;20648;-70
2023/10/29 06:13:22;;;;;;;2.90;2.70;;;14.40;99.90;;;;;;5054520;28;20286;-71
2023/10/29 06:15:48;;;;;;;3.70;2.77;;;14.40;99.90;;;;;;5054479;28;20179;-73
2023/10/29 06:18:16;;;;;;;3.63;3.33;;;14.40;99.90;;;;;;5053945;28;20170;-70
2023/10/29 06:20:42;;;;;;;3.30;2.70;;;14.40;99.90;;;;;;5054532;28;20175;-70
2023/10/29 06:23:08;;;;;;;3.63;2.50;;;14.40;99.90;;;;;;5054418;28;20225;-71
2023/10/29 06:25:34;;;;;;;3.93;2.50;;;14.30;99.90;;;;;;5053979;28;20171;-71
2023/10/29 06:27:59;;;;;;;3.87;2.67;;;14.30;99.90;;;;;;5054279;28;20175;-71
2023/10/29 06:30:25;;;;;;;2.80;2.60;;;14.20;99.90;;;;;;5054482;28;20170;-71
2023/10/29 06:32:51;;;;;;;3.10;2.90;;;14.20;99.90;;;;;;5054079;28;20566;-69
2023/10/29 06:35:16;;;;;;;3.40;2.90;;;14.10;99.90;;;;;;5053659;28;20225;-70
2023/10/29 06:37:42;;;;;;;3.00;2.73;;;14.10;99.90;;;;;;5054226;28;20171;-70
2023/10/29 06:40:08;;;;;;;3.47;2.90;;;14.10;99.90;;;;;;5054092;28;20175;-70
2023/10/29 06:42:34;;;;;;;3.80;3.00;;;14.00;99.90;;;;;;5053896;28;20175;-71
2023/10/29 06:44:59;;;;;;;3.03;2.83;;;14.00;99.90;;;;;;5053618;28;20734;-70
2023/10/29 06:47:25;;;;;;;3.00;2.80;;;14.00;99.90;;;;;;5054069;28;20181;-71
2023/10/29 06:49:51;;;;;;;3.30;3.00;;;14.00;99.90;;;;;;5052795;28;20178;-71
2023/10/29 06:52:17;;;;;;;3.10;2.73;;;14.00;99.90;;;;;;5053656;28;20234;-70
2023/10/29 06:54:42;;;;;;;3.07;2.87;;;14.00;99.90;;;;;;5053542;28;20668;-71
2023/10/29 06:57:08;;;;;;;4.43;2.80;;;14.00;99.90;;;;;;5052978;28;20177;-70
2023/10/29 06:59:34;;;;;;;11.07;3.00;;;14.00;99.90;;;;;;5053533;28;20178;-70
2023/10/29 07:02:00;;;;;;;6.23;4.60;;;14.00;99.90;;;;;;5053468;28;20171;-70
2023/10/29 07:04:26;;;;;;;6.73;5.33;;;14.10;99.90;;;;;;5053053;28;20197;-70
2023/10/29 07:06:52;;;;;;;7.73;3.97;;;14.10;99.90;;;;;;5053286;28;20171;-71
2023/10/29 07:09:18;;;;;;;5.63;3.77;;;14.00;99.90;;;;;;5053073;28;20717;-71
2023/10/29 07:11:44;;;;;;;14.37;7.53;;;14.00;99.90;;;;;;5052434;28;20236;-71
2023/10/29 07:14:10;;;;;;;9.47;5.23;;;14.00;99.90;;;;;;5052846;28;20191;-71
2023/10/29 07:16:37;;;;;;;23.87;7.87;;;14.10;99.90;;;;;;5052854;28;20244;-71
2023/10/29 07:19:04;;;;;;;22.33;10.87;;;14.00;99.90;;;;;;5052025;28;20170;-71
2023/10/29 07:21:30;;;;;;;16.20;8.77;;;14.00;99.90;;;;;;5053251;28;20174;-71
2023/10/29 07:23:56;;;;;;;8.20;5.70;;;14.00;99.90;;;;;;5053245;28;20193;-70
2023/10/29 07:26:21;;;;;;;5.17;4.67;;;14.00;99.90;;;;;;5052778;28;20194;-70
2023/10/29 07:28:47;;;;;;;4.70;4.03;;;14.00;99.90;;;;;;5052722;28;20224;-71
2023/10/29 07:31:13;;;;;;;3.63;3.33;;;14.00;99.90;;;;;;5053068;28;20175;-71
2023/10/29 07:33:38;;;;;;;4.93;3.80;;;14.00;99.90;;;;;;5052845;28;20206;-71
2023/10/29 07:36:04;;;;;;;6.40;4.03;;;13.90;99.90;;;;;;5052410;28;20632;-70
2023/10/29 07:38:30;;;;;;;5.07;4.00;;;13.90;99.90;;;;;;5052622;28;20703;-70
2023/10/29 07:40:56;;;;;;;4.00;3.60;;;13.90;99.90;;;;;;5052564;28;20249;-71
2023/10/29 07:43:22;;;;;;;4.37;3.33;;;13.80;99.90;;;;;;5052627;28;20175;-71
2023/10/29 07:45:47;;;;;;;6.17;3.33;;;13.80;99.90;;;;;;5052628;28;20415;-72
2023/10/29 07:48:17;;;;;;;5.10;3.03;;;13.80;99.90;;;;;;5052398;28;20167;-70
2023/10/29 07:50:49;;;;;;;3.93;3.37;;;13.90;99.90;;;;;;5052760;28;20261;-70
2023/10/29 07:53:15;;;;;;;4.53;3.27;;;14.00;99.90;;;;;;5052075;28;20762;-70
2023/10/29 07:55:40;;;;;;;4.53;2.70;;;14.20;99.90;;;;;;5052516;28;20254;-72
2023/10/29 07:58:06;;;;;;;3.10;2.90;;;14.50;99.90;;;;;;5052658;28;20552;-71
2023/10/29 08:00:31;;;;;;;4.80;2.67;;;14.80;99.90;;;;;;5052416;28;20175;-72
2023/10/29 08:02:57;;;;;;;4.57;3.03;;;15.00;99.90;;;;;;5052225;28;20167;-72
2023/10/29 08:05:23;;;;;;;5.73;3.03;;;15.10;99.90;;;;;;5051782;28;20750;-72
2023/10/29 08:07:48;;;;;;;4.47;3.30;;;15.20;99.90;;;;;;5051798;28;20289;-73
2023/10/29 08:10:14;;;;;;;2.87;2.30;;;15.30;99.90;;;;;;5051992;28;20171;-72
2023/10/29 08:12:39;;;;;;;3.07;2.70;;;15.30;99.90;;;;;;5052347;28;20230;-70
2023/10/29 08:15:05;;;;;;;2.60;2.40;;;15.20;99.90;;;;;;5051360;28;20202;-72
2023/10/29 08:17:31;;;;;;;3.63;2.80;;;15.20;99.90;;;;;;5051649;28;20167;-73
2023/10/29 08:19:58;;;;;;;4.00;2.60;;;15.10;99.90;;;;;;5052009;28;20229;-72
2023/10/29 08:22:24;;;;;;;4.63;2.73;;;15.10;99.90;;;;;;5051710;28;20183;-73
2023/10/29 08:24:50;;;;;;;2.60;2.50;;;15.10;99.90;;;;;;5052202;28;20277;-72
2023/10/29 08:27:16;;;;;;;4.70;2.37;;;15.10;99.90;;;;;;5051899;28;20198;-73
2023/10/29 08:29:43;;;;;;;3.97;2.43;;;15.10;99.90;;;;;;5052905;28;20174;-72
2023/10/29 08:32:09;;;;;;;3.23;2.50;;;15.10;99.90;;;;;;5052565;28;20499;-72
2023/10/29 08:34:35;;;;;;;2.60;2.40;;;15.20;99.90;;;;;;5052136;28;20248;-72
2023/10/29 08:37:00;;;;;;;2.70;2.50;;;15.20;99.90;;;;;;5052728;28;20697;-69
2023/10/29 08:39:27;;;;;;;2.90;2.60;;;15.30;99.90;;;;;;5052294;28;20639;-71
2023/10/29 08:41:53;;;;;;;2.80;2.50;;;15.30;99.90;;;;;;5052421;28;20547;-73
2023/10/29 08:44:19;;;;;;;3.57;2.73;;;15.40;99.90;;;;;;5052651;28;20203;-73
2023/10/29 08:46:48;;;;;;;3.67;2.60;;;15.40;99.90;;;;;;5052709;28;20167;-72
2023/10/29 08:49:14;;;;;;;3.70;2.40;;;15.50;99.90;;;;;;5052525;28;20167;-72
2023/10/29 08:51:39;;;;;;;2.80;2.37;;;15.50;99.90;;;;;;5052540;28;20536;-71
2023/10/29 08:54:05;;;;;;;2.67;2.47;;;15.50;99.90;;;;;;5052353;28;20667;-70
2023/10/29 08:56:35;;;;;;;2.73;2.50;;;15.50;99.90;;;;;;5052306;28;20548;-71
2023/10/29 08:59:05;;;;;;;3.17;2.40;;;15.50;99.90;;;;;;5052637;28;20705;-72
2023/10/29 09:01:34;;;;;;;4.57;2.80;;;15.50;99.90;;;;;;5052021;28;20174;-72
2023/10/29 09:04:00;;;;;;;4.93;2.60;;;15.50;99.90;;;;;;5051341;28;20190;-73
2023/10/29 09:06:26;;;;;;;2.90;2.40;;;15.50;99.90;;;;;;5051495;28;20557;-73
2023/10/29 09:08:52;;;;;;;2.50;2.30;;;15.50;99.90;;;;;;5051562;28;20174;-70
2023/10/29 09:11:17;;;;;;;2.50;2.30;;;15.50;99.90;;;;;;5051379;28;20175;-73
2023/10/29 09:13:43;;;;;;;2.80;2.60;;;15.50;99.90;;;;;;5051873;28;20241;-71
2023/10/29 09:16:09;;;;;;;2.60;2.40;;;15.50;99.90;;;;;;5050810;28;20162;-71
2023/10/29 09:18:35;;;;;;;3.27;2.70;;;15.50;99.90;;;;;;5051443;28;20248;-72
2023/10/29 09:21:01;;;;;;;3.30;2.87;;;15.50;99.90;;;;;;5051482;28;20209;-72
2023/10/29 09:23:29;;;;;;;6.40;3.50;;;15.50;99.90;;;;;;5051155;28;20267;-72
2023/10/29 09:25:59;;;;;;;2.90;2.80;;;15.50;99.90;;;;;;5051123;28;20187;-70
2023/10/29 09:28:26;;;;;;;3.07;2.87;;;15.60;99.90;;;;;;5051183;28;20175;-72
2023/10/29 09:30:52;;;;;;;2.63;2.53;;;15.70;99.90;;;;;;5051297;28;20179;-72
2023/10/29 09:33:17;;;;;;;3.70;2.70;;;15.70;99.90;;;;;;5050777;28;20610;-71
2023/10/29 09:35:43;;;;;;;4.47;2.87;;;15.70;99.90;;;;;;5051089;28;20167;-71
2023/10/29 09:38:08;;;;;;;2.90;2.70;;;15.70;99.90;;;;;;5051349;28;20536;-72
2023/10/29 09:40:35;;;;;;;3.30;3.00;;;15.70;99.90;;;;;;5051428;28;20178;-72
2023/10/29 09:43:08;;;;;;;3.27;2.97;;;15.60;99.90;;;;;;5052706;28;20183;-72
2023/10/29 09:45:38;;;;;;;3.10;2.80;;;15.60;99.90;;;;;;5054459;28;20174;-72
2023/10/29 09:48:04;;;;;;;3.00;2.60;;;15.50;99.90;;;;;;5055014;28;20189;-73
2023/10/29 09:50:30;;;;;;;2.77;2.40;;;15.50;99.90;;;;;;5054599;28;20178;-71
2023/10/29 09:53:01;;;;;;;2.70;2.50;;;15.50;99.90;;;;;;5054652;28;20202;-72
2023/10/29 09:55:27;;;;;;;3.00;2.80;;;15.50;99.90;;;;;;5054414;28;20471;-72
2023/10/29 09:57:53;;;;;;;2.97;2.67;;;15.70;99.90;;;;;;5054821;28;20232;-71
2023/10/29 10:00:19;;;;;;;2.87;2.53;;;16.00;99.90;;;;;;5055016;28;20183;-72
2023/10/29 10:02:57;;;;;;;4.60;2.77;;;16.20;99.90;;;;;;5055165;28;20213;-73
2023/10/29 10:05:25;;;;;;;3.07;2.60;;;16.70;99.90;;;;;;5054548;28;20289;-71
2023/10/29 10:07:57;;;;;;;3.53;2.50;;;17.00;99.90;;;;;;5054661;28;20180;-73
2023/10/29 10:10:47;;;;;;;4.03;2.70;;;17.10;99.90;;;;;;5054635;28;20232;-73
2023/10/29 10:13:14;;;;;;;2.50;2.30;;;17.30;99.90;;;;;;5054316;28;20226;-73
2023/10/29 10:15:41;;;;;;;2.70;2.50;;;17.10;99.90;;;;;;5052534;28;20175;-71
2023/10/29 10:18:06;;;;;;;4.20;2.50;;;17.00;99.90;;;;;;5054300;28;20175;-72
2023/10/29 10:20:33;;;;;;;4.60;3.63;;;16.90;99.90;;;;;;5054596;28;20233;-73
2023/10/29 10:23:04;;;;;;;6.40;4.93;;;17.00;99.90;;;;;;5054214;28;20621;-72
2023/10/29 10:25:31;;;;;;;4.27;2.67;;;17.10;99.90;;;;;;5053496;28;20187;-72
2023/10/29 10:27:58;;;;;;;3.40;3.10;;;17.20;99.90;;;;;;5054637;28;20178;-73
2023/10/29 10:30:34;;;;;;;3.17;2.97;;;17.30;99.90;;;;;;5054029;28;20224;-73
2023/10/29 10:33:19;;;;;;;3.10;2.90;;;17.30;99.90;;;;;;5054107;28;20717;-73
2023/10/29 10:35:47;;;;;;;3.07;2.77;;;17.30;99.90;;;;;;5053382;28;20190;-72
2023/10/29 10:38:15;;;;;;;5.50;2.90;;;17.30;99.90;;;;;;5053930;28;20643;-72
2023/10/29 10:40:41;;;;;;;5.43;2.63;;;17.40;99.90;;;;;;5054196;28;20237;-72
2023/10/29 10:43:07;;;;;;;4.83;2.53;;;17.50;99.90;;;;;;5053595;28;20178;-73
2023/10/29 10:45:33;;;;;;;3.73;2.60;;;17.40;99.90;;;;;;5053283;28;20201;-73
2023/10/29 10:48:04;;;;;;;2.83;2.63;;;17.20;99.90;;;;;;5054089;28;20189;-72
2023/10/29 10:50:31;;;;;;;3.87;2.60;;;17.00;99.90;;;;;;5053560;28;20235;-70
2023/10/29 10:52:58;;;;;;;3.83;3.07;;;16.80;99.90;;;;;;5053477;28;20692;-71
2023/10/29 10:55:25;;;;;;;3.70;2.87;;;16.70;99.90;;;;;;5051495;28;20191;-71
2023/10/29 10:57:51;;;;;;;5.27;3.47;;;16.50;99.90;;;;;;5053879;28;20163;-71
2023/10/29 11:00:18;;;;;;;3.40;2.70;;;16.50;99.90;;;;;;5053561;28;20178;-72
2023/10/29 11:02:45;;;;;;;2.80;2.60;;;16.50;99.90;;;;;;5053769;28;20175;-73
2023/10/29 11:05:14;;;;;;;3.10;2.83;;;16.50;99.90;;;;;;5053019;28;20191;-72
2023/10/29 11:07:44;;;;;;;3.20;2.63;;;16.50;99.90;;;;;;5053405;28;20206;-71
2023/10/29 11:10:13;;;;;;;3.67;2.47;;;16.60;99.90;;;;;;5053314;28;20228;-71
2023/10/29 11:12:39;;;;;;;7.87;3.17;;;16.70;99.90;;;;;;5053201;28;20198;-72
2023/10/29 11:15:21;;;;;;;2.97;2.77;;;16.80;99.90;;;;;;5053113;28;20272;-71
2023/10/29 11:17:49;;;;;;;2.80;2.50;;;17.10;99.90;;;;;;5052695;28;20167;-71
2023/10/29 11:20:37;;;;;;;2.50;2.30;;;17.30;99.90;;;;;;5052965;28;20171;-72
2023/10/29 11:23:09;;;;;;;2.80;2.20;;;17.30;99.90;;;;;;5052326;28;20663;-72
2023/10/29 11:25:41;;;;;;;2.43;2.33;;;17.20;99.90;;;;;;5052900;28;20218;-73
2023/10/29 11:28:26;;;;;;;3.07;2.53;;;17.20;99.90;;;;;;5053223;28;20175;-72
2023/10/29 11:31:17;;;;;;;3.03;2.50;;;17.10;99.90;;;;;;5053063;28;20174;-72
2023/10/29 11:33:44;;;;;;;3.80;2.63;;;17.00;99.90;;;;;;5052896;28;20206;-72
2023/10/29 11:36:37;;;;;;;3.00;2.80;;;17.00;99.90;;;;;;5052731;28;20171;-71
2023/10/29 11:39:15;;;;;;;3.10;2.87;;;16.90;99.90;;;;;;5052687;28;20185;-72
2023/10/29 11:41:44;;;;;;;2.70;2.50;;;16.80;99.90;;;;;;5052848;28;20648;-72
2023/10/29 11:44:24;;;;;;;7.00;6.13;;;16.70;99.90;;;;;;5052925;28;20583;-71
2023/10/29 11:46:55;;;;;;;3.80;3.50;;;16.80;99.90;;;;;;5052503;28;20212;-71
2023/10/29 11:49:28;;;;;;;2.97;2.77;;;16.90;99.90;;;;;;5052475;28;20175;-71
2023/10/29 11:51:56;;;;;;;3.27;2.83;;;17.00;99.90;;;;;;5052866;28;20170;-71
2023/10/29 11:54:22;;;;;;;2.60;2.40;;;17.20;99.90;;;;;;5052439;28;20680;-72
2023/10/29 11:56:49;;;;;;;2.17;2.07;;;17.40;99.90;;;;;;5052661;28;20648;-71
2023/10/29 11:59:15;;;;;;;2.27;2.13;;;17.60;99.90;;;;;;5052512;28;20163;-71
2023/10/29 12:01:43;;;;;;;2.50;2.40;;;17.60;99.90;;;;;;5052309;28;20720;-71
2023/10/29 12:04:09;;;;;;;2.50;2.40;;;17.60;99.90;;;;;;5052481;28;20193;-72
2023/10/29 12:06:43;;;;;;;2.90;2.70;;;17.50;99.90;;;;;;5051678;28;20175;-71
2023/10/29 12:09:18;;;;;;;2.70;2.50;;;17.40;99.90;;;;;;5052567;28;20178;-71
2023/10/29 12:11:45;;;;;;;3.40;3.10;;;17.20;99.90;;;;;;5052252;28;20206;-71
2023/10/29 12:14:11;;;;;;;3.80;3.30;;;16.90;99.90;;;;;;5052095;28;20285;-71
2023/10/29 12:16:37;;;;;;;2.90;2.70;;;16.70;99.90;;;;;;5051928;28;20716;-71
2023/10/29 12:19:02;;;;;;;2.70;2.50;;;16.70;99.90;;;;;;5052332;28;20198;-70
2023/10/29 12:21:28;;;;;;;3.17;2.83;;;16.60;99.90;;;;;;5052487;28;20205;-72
2023/10/29 12:23:57;;;;;;;2.93;2.73;;;16.60;99.90;;;;;;5052200;28;20729;-71
2023/10/29 12:26:25;;;;;;;3.80;3.47;;;16.60;99.90;;;;;;5051436;28;20197;-71
2023/10/29 12:28:52;;;;;;;3.83;3.63;;;16.60;99.90;;;;;;5032244;28;20206;-71
2023/10/29 12:31:28;;;;;;;4.67;4.43;;;16.60;99.90;;;;;;5031793;28;20176;-71
2023/10/29 12:33:57;;;;;;;5.50;4.53;;;16.40;99.90;;;;;;5032000;28;20721;-71
2023/10/29 12:36:23;;;;;;;4.93;4.10;;;16.40;99.90;;;;;;5031891;28;20258;-71
2023/10/29 12:38:50;;;;;;;7.47;3.97;;;16.40;99.90;;;;;;5041140;28;20175;-71
2023/10/29 12:41:16;;;;;;;5.60;3.73;;;16.40;99.90;;;;;;5051637;28;20205;-71
2023/10/29 12:43:51;;;;;;;5.00;3.70;;;16.40;99.90;;;;;;5051799;28;20206;-71